createdAt,value
2023-04-15T00:01:34.905Z,100201.98
2023-04-15T00:04:03.236Z,100204.04
2023-04-15T00:06:33.200Z,100208.85
2023-04-15T00:09:02.012Z,100209.36
2023-04-15T00:11:30.974Z,100209.88
2023-04-15T00:14:02.975Z,100213.48
2023-04-15T00:16:31.854Z,100211.95
2023-04-15T00:19:00.730Z,100210.91
2023-04-15T00:21:33.744Z,100205.58
2023-04-15T00:24:02.132Z,100201.80
2023-04-15T00:26:30.706Z,100203.00
2023-04-15T00:29:02.682Z,100202.14
2023-04-15T00:31:31.756Z,100207.79
2023-04-15T00:34:00.225Z,100206.95
2023-04-15T00:36:35.314Z,100212.96
2023-04-15T00:39:03.975Z,100215.35
2023-04-15T00:41:34.258Z,100218.28
2023-04-15T00:44:05.462Z,100217.26
2023-04-15T00:46:36.103Z,100222.94
2023-04-15T00:49:06.667Z,100219.31
2023-04-15T00:51:37.073Z,100217.44
2023-04-15T00:54:06.465Z,100220.88
2023-04-15T00:56:36.275Z,100216.92
2023-04-15T00:59:09.431Z,100219.50
2023-04-15T01:01:38.705Z,100216.90
2023-04-15T01:04:10.467Z,100214.32
2023-04-15T01:06:39.239Z,100220.15
2023-04-15T01:09:07.774Z,100224.59
2023-04-15T01:11:41.919Z,100220.63
2023-04-15T01:14:11.365Z,100222.51
2023-04-15T01:16:40.286Z,100228.84
2023-04-15T01:19:09.057Z,100224.20
2023-04-15T01:21:39.860Z,100226.23
2023-04-15T01:24:09.976Z,100225.54
2023-04-15T01:26:39.403Z,100219.70
2023-04-15T01:29:09.846Z,100213.65
2023-04-15T01:31:38.831Z,100213.63
2023-04-15T01:34:08.913Z,100217.72
2023-04-15T01:36:37.560Z,100221.14
2023-04-15T01:39:08.563Z,100227.14
2023-04-15T01:41:39.636Z,100224.21
2023-04-15T01:44:08.297Z,100229.85
2023-04-15T01:46:37.304Z,100243.91
2023-04-15T01:49:06.494Z,100242.87
2023-04-15T01:51:35.240Z,100246.14
2023-04-15T01:54:04.262Z,100245.64
2023-04-15T01:56:33.656Z,100249.23
2023-04-15T01:59:04.022Z,100252.48
2023-04-15T02:01:32.567Z,100257.45
2023-04-15T02:04:02.314Z,100256.92
2023-04-15T02:06:32.933Z,100255.87
2023-04-15T02:09:05.270Z,100255.48
2023-04-15T02:11:37.473Z,100267.30
2023-04-15T02:14:06.600Z,100272.45
2023-04-15T02:16:34.937Z,100281.88
2023-04-15T02:19:05.256Z,100292.85
2023-04-15T02:21:35.577Z,100295.77
2023-04-15T02:24:04.656Z,100294.90
2023-04-15T02:26:37.834Z,100299.70
2023-04-15T02:29:07.321Z,100308.95
2023-04-15T02:31:40.598Z,100309.14
2023-04-15T02:34:14.550Z,100306.23
2023-04-15T02:36:48.811Z,100298.69
2023-04-15T02:39:18.925Z,100303.13
2023-04-15T02:41:52.071Z,100306.54
2023-04-15T02:44:21.981Z,100303.77
2023-04-15T02:46:52.873Z,100308.37
2023-04-15T02:49:25.826Z,100313.49
2023-04-15T02:51:55.595Z,100313.13
2023-04-15T02:54:24.911Z,100312.28
2023-04-15T02:56:56.421Z,100314.50
2023-04-15T02:59:24.999Z,100315.36
2023-04-15T03:01:53.730Z,100318.11
2023-04-15T03:04:22.204Z,100323.56
2023-04-15T03:06:52.520Z,100328.71
2023-04-15T03:09:21.757Z,100330.92
2023-04-15T03:11:51.736Z,100336.08
2023-04-15T03:14:22.612Z,100338.11
2023-04-15T03:16:52.495Z,100343.23
2023-04-15T03:19:21.306Z,100341.83
2023-04-15T03:21:50.213Z,100350.05
2023-04-15T03:24:18.752Z,100354.52
2023-04-15T03:26:48.335Z,100344.23
2023-04-15T03:29:17.972Z,100344.76
2023-04-15T03:31:47.253Z,100349.54
2023-04-15T03:34:16.134Z,100352.95
2023-04-15T03:36:44.453Z,100359.62
2023-04-15T03:39:13.324Z,100357.39
2023-04-15T03:41:41.811Z,100352.56
2023-04-15T03:44:10.559Z,100353.77
2023-04-15T03:46:39.070Z,100367.29
2023-04-15T03:49:07.760Z,100362.30
2023-04-15T03:51:39.689Z,100364.88
2023-04-15T03:54:08.323Z,100372.25
2023-04-15T03:56:36.734Z,100373.29
2023-04-15T03:59:05.519Z,100378.25
2023-04-15T04:01:33.817Z,100382.19
2023-04-15T04:04:02.465Z,100382.55
2023-04-15T04:06:31.321Z,100383.05
2023-04-15T04:08:59.920Z,100386.14
2023-04-15T04:11:28.461Z,100393.19
2023-04-15T04:14:02.606Z,100386.53
2023-04-15T04:16:31.737Z,100389.63
2023-04-15T04:19:00.401Z,100393.39
2023-04-15T04:21:29.415Z,100395.09
2023-04-15T04:23:59.166Z,100388.71
2023-04-15T04:26:27.728Z,100394.02
2023-04-15T04:28:56.207Z,100395.07
2023-04-15T04:31:24.730Z,100390.65
2023-04-15T04:33:54.598Z,100387.80
2023-04-15T04:36:22.982Z,100396.37
2023-04-15T04:38:52.132Z,100386.73
2023-04-15T04:41:20.598Z,100392.71
2023-04-15T04:43:49.318Z,100405.74
2023-04-15T04:46:19.078Z,100401.50
2023-04-15T04:48:47.904Z,100411.71
2023-04-15T04:51:16.281Z,100416.74
2023-04-15T04:53:44.575Z,100425.05
2023-04-15T04:56:13.281Z,100419.97
2023-04-15T04:58:41.822Z,100418.80
2023-04-15T05:01:10.592Z,100426.34
2023-04-15T05:03:39.465Z,100427.73
2023-04-15T05:06:08.952Z,100425.72
2023-04-15T05:08:40.394Z,100428.99
2023-04-15T05:11:09.238Z,100429.34
2023-04-15T05:13:38.981Z,100436.04
2023-04-15T05:16:08.620Z,100438.25
2023-04-15T05:18:38.118Z,100439.27
2023-04-15T05:21:07.105Z,100438.05
2023-04-15T05:23:35.759Z,100437.77
2023-04-15T05:26:08.308Z,100440.08
2023-04-15T05:28:37.129Z,100441.89
2023-04-15T05:31:05.650Z,100446.23
2023-04-15T05:33:35.091Z,100446.31
2023-04-15T05:36:03.570Z,100449.48
2023-04-15T05:38:31.899Z,100445.25
2023-04-15T05:41:00.276Z,100434.30
2023-04-15T05:43:31.188Z,100443.92
2023-04-15T05:45:59.589Z,100445.67
2023-04-15T05:48:28.733Z,100449.55
2023-04-15T05:50:57.404Z,100451.22
2023-04-15T05:53:32.177Z,100444.46
2023-04-15T05:56:00.822Z,100454.78
2023-04-15T05:58:29.318Z,100467.18
2023-04-15T06:01:02.811Z,100465.46
2023-04-15T06:03:33.848Z,100466.51
2023-04-15T06:06:02.802Z,100474.95
2023-04-15T06:08:31.538Z,100472.21
2023-04-15T06:10:59.869Z,100480.35
2023-04-15T06:13:28.436Z,100474.41
2023-04-15T06:15:56.865Z,100473.56
2023-04-15T06:18:25.324Z,100481.98
2023-04-15T06:20:54.302Z,100482.29
2023-04-15T06:23:22.791Z,100487.32
2023-04-15T06:25:51.152Z,100486.69
2023-04-15T06:28:19.860Z,100489.83
2023-04-15T06:30:51.730Z,100499.17
2023-04-15T06:33:23.817Z,100495.94
2023-04-15T06:35:52.184Z,100498.19
2023-04-15T06:38:20.601Z,100507.33
2023-04-15T06:40:49.370Z,100511.10
2023-04-15T06:43:18.565Z,100518.33
2023-04-15T06:45:52.781Z,100512.98
2023-04-15T06:48:22.706Z,100516.05
2023-04-15T06:50:51.092Z,100512.09
2023-04-15T06:53:23.952Z,100518.30
2023-04-15T06:55:52.462Z,100517.30
2023-04-15T06:58:21.265Z,100524.52
2023-04-15T07:00:49.729Z,100523.48
2023-04-15T07:03:20.427Z,100530.17
2023-04-15T07:05:49.136Z,100532.59
2023-04-15T07:08:24.560Z,100532.77
2023-04-15T07:10:55.087Z,100536.08
2023-04-15T07:13:23.563Z,100536.09
2023-04-15T07:15:54.696Z,100530.41
2023-04-15T07:18:23.801Z,100528.01
2023-04-15T07:20:56.928Z,100526.64
2023-04-15T07:23:25.252Z,100521.64
2023-04-15T07:25:57.173Z,100535.58
2023-04-15T07:28:27.872Z,100547.59
2023-04-15T07:30:57.563Z,100545.86
2023-04-15T07:33:31.247Z,100552.95
2023-04-15T07:35:59.844Z,100550.91
2023-04-15T07:38:29.004Z,100550.08
2023-04-15T07:40:58.465Z,100552.15
2023-04-15T07:43:29.454Z,100555.27
2023-04-15T07:45:58.115Z,100557.17
2023-04-15T07:48:27.280Z,100559.42
2023-04-15T07:51:03.007Z,100558.73
2023-04-15T07:53:31.600Z,100554.23
2023-04-15T07:55:59.982Z,100546.13
2023-04-15T07:58:31.755Z,100547.84
2023-04-15T08:01:02.273Z,100550.77
2023-04-15T08:03:30.882Z,100551.30
2023-04-15T08:06:01.922Z,100549.05
2023-04-15T08:08:32.263Z,100554.04
2023-04-15T08:11:02.033Z,100544.73
2023-04-15T08:13:31.697Z,100541.14
2023-04-15T08:16:32.951Z,100545.29
2023-04-15T08:19:01.776Z,100542.52
2023-04-15T08:21:31.142Z,100541.15
2023-04-15T08:24:00.425Z,100539.44
2023-04-15T08:26:29.794Z,100544.96
2023-04-15T08:28:58.291Z,100545.84
2023-04-15T08:31:27.062Z,100558.05
2023-04-15T08:33:59.662Z,100559.08
2023-04-15T08:36:33.252Z,100560.45
2023-04-15T08:39:02.421Z,100562.86
2023-04-15T08:41:41.145Z,100566.31
2023-04-15T08:44:09.817Z,100564.25
2023-04-15T08:46:42.714Z,100567.36
2023-04-15T08:49:13.370Z,100575.97
2023-04-15T08:51:44.178Z,100564.95
2023-04-15T08:54:15.828Z,100576.15
2023-04-15T08:56:44.330Z,100584.06
2023-04-15T08:59:12.756Z,100580.63
2023-04-15T09:01:42.644Z,100581.67
2023-04-15T09:04:12.782Z,100583.73
2023-04-15T09:06:41.730Z,100579.44
2023-04-15T09:09:10.225Z,100582.90
2023-04-15T09:11:39.773Z,100582.55
2023-04-15T09:14:08.669Z,100588.76
2023-04-15T09:16:58.941Z,100588.57
2023-04-15T09:19:27.443Z,100595.46
2023-04-15T09:21:58.948Z,100594.09
2023-04-15T09:24:36.366Z,100594.94
2023-04-15T09:27:05.092Z,100594.77
2023-04-15T09:29:33.506Z,100595.98
2023-04-15T09:32:12.071Z,100591.66
2023-04-15T09:34:42.073Z,100591.66
2023-04-15T09:37:11.490Z,100597.02
2023-04-15T09:39:52.672Z,100599.11
2023-04-15T09:42:24.677Z,100594.98
2023-04-15T09:44:53.342Z,100599.11
2023-04-15T09:47:31.742Z,100609.45
2023-04-15T09:50:01.230Z,100612.56
2023-04-15T09:52:30.121Z,100617.05
2023-04-15T09:54:59.113Z,100621.53
2023-04-15T09:57:37.460Z,100629.11
2023-04-15T10:00:11.411Z,100626.20
2023-04-15T10:02:42.339Z,100630.84
2023-04-15T10:05:11.311Z,100621.20
2023-04-15T10:07:41.688Z,100624.11
2023-04-15T10:10:10.172Z,100617.39
2023-04-15T10:12:39.311Z,100631.02
2023-04-15T10:15:08.209Z,100631.52
2023-04-15T10:17:37.392Z,100635.14
2023-04-15T10:20:07.305Z,100636.86
2023-04-15T10:22:35.729Z,100632.73
2023-04-15T10:25:05.260Z,100638.44
2023-04-15T10:27:34.201Z,100637.05
2023-04-15T10:30:05.406Z,100638.59
2023-04-15T10:32:34.440Z,100641.86
2023-04-15T10:35:02.702Z,100647.21
2023-04-15T10:37:38.569Z,100646.70
2023-04-15T10:40:33.518Z,100645.32
2023-04-15T10:43:02.919Z,100649.81
2023-04-15T10:45:39.682Z,100640.52
2023-04-15T10:48:08.517Z,100640.34
2023-04-15T10:50:39.567Z,100642.58
2023-04-15T10:53:10.310Z,100654.80
2023-04-15T10:55:38.760Z,100655.17
2023-04-15T10:58:07.842Z,100653.11
2023-04-15T11:00:38.161Z,100654.84
2023-04-15T11:03:08.086Z,100652.77
2023-04-15T11:05:39.769Z,100643.98
2023-04-15T11:08:09.049Z,100651.22
2023-04-15T11:10:37.966Z,100652.59
2023-04-15T11:13:16.862Z,100643.63
2023-04-15T11:15:45.722Z,100642.09
2023-04-15T11:18:16.727Z,100646.90
2023-04-15T11:20:57.494Z,100649.66
2023-04-15T11:23:47.116Z,100643.65
2023-04-15T11:26:17.300Z,100659.17
2023-04-15T11:28:46.469Z,100644.16
2023-04-15T11:31:16.554Z,100651.40
2023-04-15T11:33:59.389Z,100644.33
2023-04-15T11:36:28.986Z,100644.15
2023-04-15T11:38:59.541Z,100642.25
2023-04-15T11:41:27.980Z,100642.59
2023-04-15T11:43:56.425Z,100649.14
2023-04-15T11:46:30.959Z,100658.98
2023-04-15T11:49:00.395Z,100650.19
2023-04-15T11:51:33.015Z,100646.20
2023-04-15T11:54:01.744Z,100652.44
2023-04-15T11:56:32.155Z,100653.33
2023-04-15T11:59:00.573Z,100660.73
2023-04-15T12:01:36.222Z,100664.19
2023-04-15T12:04:15.904Z,100665.20
2023-04-15T12:06:44.905Z,100658.80
2023-04-15T12:09:14.047Z,100655.36
2023-04-15T12:11:44.844Z,100670.38
2023-04-15T12:14:20.725Z,100655.36
2023-04-15T12:16:54.292Z,100643.46
2023-04-15T12:19:35.509Z,100643.63
2023-04-15T12:22:05.588Z,100647.77
2023-04-15T12:24:36.537Z,100651.75
2023-04-15T12:27:08.656Z,100649.84
2023-04-15T12:29:38.567Z,100647.11
2023-04-15T12:32:10.955Z,100641.73
2023-04-15T12:34:41.687Z,100648.63
2023-04-15T12:37:11.363Z,100634.65
2023-04-15T12:39:41.309Z,100632.41
2023-04-15T12:42:09.823Z,100640.17
2023-04-15T12:44:39.129Z,100642.92
2023-04-15T12:47:08.410Z,100636.71
2023-04-15T12:49:37.832Z,100620.84
2023-04-15T12:52:06.780Z,100631.03
2023-04-15T12:54:36.225Z,100634.83
2023-04-15T12:57:06.914Z,100641.06
2023-04-15T12:59:36.385Z,100638.29
2023-04-15T13:02:04.847Z,100638.13
2023-04-15T13:04:33.774Z,100633.09
2023-04-15T13:07:02.371Z,100648.45
2023-04-15T13:09:32.675Z,100648.79
2023-04-15T13:12:01.451Z,100646.89
2023-04-15T13:14:30.710Z,100638.42
2023-04-15T13:16:59.600Z,100656.02
2023-04-15T13:19:27.963Z,100660.48
2023-04-15T13:21:56.504Z,100653.52
2023-04-15T13:24:24.829Z,100648.33
2023-04-15T13:26:53.927Z,100657.64
2023-04-15T13:29:22.485Z,100656.39
2023-04-15T13:31:51.226Z,100665.39
2023-04-15T13:34:24.446Z,100658.14
2023-04-15T13:36:53.050Z,100653.84
2023-04-15T13:39:21.697Z,100664.90
2023-04-15T13:41:50.069Z,100662.00
2023-04-15T13:44:19.487Z,100665.98
2023-04-15T13:46:49.087Z,100658.38
2023-04-15T13:49:17.994Z,100663.74
2023-04-15T13:51:46.312Z,100663.92
2023-04-15T13:54:14.780Z,100663.59
2023-04-15T13:56:43.036Z,100657.55
2023-04-15T13:59:11.622Z,100674.14
2023-04-15T14:01:41.937Z,100674.49
2023-04-15T14:04:11.055Z,100678.14
2023-04-15T14:06:40.153Z,100674.52
2023-04-15T14:09:08.487Z,100682.27
2023-04-15T14:11:41.232Z,100679.52
2023-04-15T14:14:10.022Z,100694.89
2023-04-15T14:16:38.829Z,100692.30
2023-04-15T14:19:07.536Z,100691.45
2023-04-15T14:21:36.320Z,100703.35
2023-04-15T14:24:04.894Z,100695.92
2023-04-15T14:26:34.234Z,100690.23
2023-04-15T14:29:02.727Z,100702.84
2023-04-15T14:31:31.261Z,100693.52
2023-04-15T14:33:59.552Z,100698.69
2023-04-15T14:36:27.850Z,100702.30
2023-04-15T14:38:56.643Z,100685.73
2023-04-15T14:41:25.028Z,100701.42
2023-04-15T14:43:53.596Z,100693.48
2023-04-15T14:46:22.114Z,100699.35
2023-04-15T14:48:50.516Z,100683.48
2023-04-15T14:51:19.008Z,100683.13
2023-04-15T14:53:47.381Z,100677.94
2023-04-15T14:56:15.672Z,100681.04
2023-04-15T14:58:43.993Z,100678.98
2023-04-15T15:01:14.092Z,100680.34
2023-04-15T15:03:42.748Z,100694.83
2023-04-15T15:06:11.868Z,100704.46
2023-04-15T15:08:43.248Z,100689.98
2023-04-15T15:11:14.278Z,100696.69
2023-04-15T15:13:44.148Z,100693.76
2023-04-15T15:16:14.439Z,100702.38
2023-04-15T15:18:42.972Z,100698.25
2023-04-15T15:21:11.293Z,100709.79
2023-04-15T15:23:39.883Z,100711.67
2023-04-15T15:26:08.374Z,100716.14
2023-04-15T15:28:37.319Z,100718.03
2023-04-15T15:31:06.192Z,100716.83
2023-04-15T15:33:35.756Z,100718.02
2023-04-15T15:36:04.515Z,100716.48
2023-04-15T15:38:32.783Z,100716.30
2023-04-15T15:41:01.132Z,100704.41
2023-04-15T15:43:29.518Z,100710.27
2023-04-15T15:45:58.012Z,100703.52
2023-04-15T15:48:27.232Z,100710.07
2023-04-15T15:51:01.519Z,100704.20
2023-04-15T15:53:30.091Z,100708.50
2023-04-15T15:55:58.842Z,100719.00
2023-04-15T15:58:27.503Z,100711.91
2023-04-15T16:00:55.868Z,100708.12
2023-04-15T16:03:25.695Z,100712.25
2023-04-15T16:05:54.212Z,100706.73
2023-04-15T16:08:22.718Z,100725.17
2023-04-15T16:10:51.596Z,100718.27
2023-04-15T16:13:20.034Z,100718.25
2023-04-15T16:15:52.938Z,100723.40
2023-04-15T16:18:21.496Z,100725.97
2023-04-15T16:20:49.865Z,100722.52
2023-04-15T16:23:19.839Z,100724.05
2023-04-15T16:25:48.360Z,100724.54
2023-04-15T16:28:26.456Z,100720.20
2023-04-15T16:30:57.338Z,100740.00
2023-04-15T16:33:25.988Z,100737.05
2023-04-15T16:35:54.582Z,100748.41
2023-04-15T16:38:23.064Z,100750.30
2023-04-15T16:40:51.733Z,100749.27
2023-04-15T16:43:20.367Z,100748.05
2023-04-15T16:45:51.547Z,100747.02
2023-04-15T16:48:20.301Z,100748.71
2023-04-15T16:50:49.315Z,100752.67
2023-04-15T16:53:18.015Z,100745.61
2023-04-15T16:55:46.276Z,100750.09
2023-04-15T16:58:15.411Z,100753.16
2023-04-15T17:00:44.206Z,100754.53
2023-04-15T17:03:13.705Z,100762.61
2023-04-15T17:05:42.561Z,100762.95
2023-04-15T17:08:11.057Z,100772.06
2023-04-15T17:10:42.349Z,100774.80
2023-04-15T17:13:10.766Z,100773.77
2023-04-15T17:15:39.244Z,100778.40
2023-04-15T17:18:08.904Z,100793.02
2023-04-15T17:20:39.080Z,100789.05
2023-04-15T17:23:07.305Z,100794.73
2023-04-15T17:25:36.824Z,100799.71
2023-04-15T17:28:05.683Z,100796.63
2023-04-15T17:30:34.064Z,100803.16
2023-04-15T17:33:03.998Z,100800.23
2023-04-15T17:35:52.799Z,100790.23
2023-04-15T17:38:21.353Z,100799.35
2023-04-15T17:40:49.833Z,100801.58
2023-04-15T17:43:18.549Z,100811.22
2023-04-15T17:45:47.683Z,100810.86
2023-04-15T17:48:16.456Z,100822.74
2023-04-15T17:50:44.962Z,100829.27
2023-04-15T17:53:13.537Z,100823.41
2023-04-15T17:55:41.782Z,100827.05
2023-04-15T17:58:11.016Z,100828.08
2023-04-15T18:00:39.417Z,100831.34
2023-04-15T18:03:08.013Z,100827.55
2023-04-15T18:05:37.796Z,100831.98
2023-04-15T18:08:06.815Z,100831.81
2023-04-15T18:10:36.665Z,100835.95
2023-04-15T18:13:04.942Z,100837.67
2023-04-15T18:15:33.533Z,100840.07
2023-04-15T18:18:02.631Z,100840.56
2023-04-15T18:20:33.621Z,100835.05
2023-04-15T18:23:02.347Z,100840.38
2023-04-15T18:25:34.291Z,100847.42
2023-04-15T18:28:02.776Z,100839.16
2023-04-15T18:30:31.173Z,100839.84
2023-04-15T18:32:59.608Z,100840.00
2023-04-15T18:35:30.108Z,100852.04
2023-04-15T18:38:01.270Z,100835.86
2023-04-15T18:40:29.762Z,100842.41
2023-04-15T18:42:58.048Z,100835.34
2023-04-15T18:45:26.407Z,100835.84
2023-04-15T18:47:54.975Z,100839.45
2023-04-15T18:50:23.549Z,100850.10
2023-04-15T18:52:52.926Z,100845.80
2023-04-15T18:55:21.512Z,100850.94
2023-04-15T18:57:49.920Z,100855.92
2023-04-15T19:00:19.792Z,100856.97
2023-04-15T19:02:49.034Z,100860.40
2023-04-15T19:05:17.516Z,100861.59
2023-04-15T19:07:46.001Z,100850.03
2023-04-15T19:10:14.411Z,100858.10
2023-04-15T19:12:44.561Z,100849.48
2023-04-15T19:15:15.968Z,100866.32
2023-04-15T19:17:44.414Z,100859.08
2023-04-15T19:20:15.238Z,100851.85
2023-04-15T19:22:44.972Z,100869.89
2023-04-15T19:25:13.263Z,100854.23
2023-04-15T19:27:41.846Z,100864.55
2023-04-15T19:30:10.365Z,100875.17
2023-04-15T19:32:38.948Z,100878.61
2023-04-15T19:35:10.054Z,100870.69
2023-04-15T19:37:40.222Z,100876.89
2023-04-15T19:40:09.731Z,100885.84
2023-04-15T19:42:38.451Z,100876.38
2023-04-15T19:45:07.351Z,100880.46
2023-04-15T19:47:35.720Z,100888.90
2023-04-15T19:50:06.225Z,100896.30
2023-04-15T19:52:35.062Z,100889.41
2023-04-15T19:55:03.880Z,100886.83
2023-04-15T19:57:34.236Z,100894.23
2023-04-15T20:00:02.542Z,100887.67
2023-04-15T20:02:34.546Z,100892.12
2023-04-15T20:05:03.170Z,100890.73
2023-04-15T20:07:31.999Z,100886.09
2023-04-15T20:10:00.608Z,100889.17
2023-04-15T20:12:49.438Z,100893.64
2023-04-15T20:15:18.321Z,100892.94
2023-04-15T20:17:48.210Z,100899.98
2023-04-15T20:20:16.673Z,100899.44
2023-04-15T20:22:46.265Z,100902.54
2023-04-15T20:25:14.981Z,100895.33
2023-04-15T20:27:43.771Z,100887.25
2023-04-15T20:30:12.193Z,100890.34
2023-04-15T20:32:41.987Z,100886.55
2023-04-15T20:35:10.340Z,100880.54
2023-04-15T20:37:40.580Z,100873.48
2023-04-15T20:40:09.522Z,100866.91
2023-04-15T20:42:38.673Z,100871.70
2023-04-15T20:45:07.884Z,100867.92
2023-04-15T20:47:36.291Z,100871.35
2023-04-15T20:50:04.965Z,100879.93
2023-04-15T20:52:33.555Z,100877.16
2023-04-15T20:55:02.139Z,100874.58
2023-04-15T20:57:30.756Z,100887.30
2023-04-15T20:59:59.110Z,100881.11
2023-04-15T21:02:27.505Z,100882.33
2023-04-15T21:04:56.387Z,100881.27
2023-04-15T21:07:25.336Z,100889.18
2023-04-15T21:09:56.120Z,100885.56
2023-04-15T21:12:24.444Z,100894.50
2023-04-15T21:14:52.793Z,100904.30
2023-04-15T21:17:21.141Z,100892.77
2023-04-15T21:19:49.614Z,100894.48
2023-04-15T21:22:18.091Z,100892.75
2023-04-15T21:24:46.836Z,100892.73
2023-04-15T21:27:15.120Z,100899.59
2023-04-15T21:29:44.168Z,100902.67
2023-04-15T21:32:12.577Z,100902.33
2023-04-15T21:34:41.080Z,100897.49
2023-04-15T21:37:09.491Z,100907.97
2023-04-15T21:39:38.721Z,100902.46
2023-04-15T21:42:07.091Z,100919.30
2023-04-15T21:44:35.907Z,100916.90
2023-04-15T21:47:04.239Z,100915.17
2023-04-15T21:49:32.883Z,100916.52
2023-04-15T21:52:01.485Z,100920.61
2023-04-15T21:54:31.364Z,100919.90
2023-04-15T21:56:59.860Z,100922.48
2023-04-15T21:59:28.300Z,100913.69
2023-04-15T22:01:56.695Z,100913.50
2023-04-15T22:04:25.264Z,100911.09
2023-04-15T22:06:55.862Z,100912.45
2023-04-15T22:09:24.292Z,100911.04
2023-04-15T22:11:52.828Z,100907.76
2023-04-15T22:14:21.268Z,100911.36
2023-04-15T22:16:49.647Z,100905.50
2023-04-15T22:19:18.154Z,100907.55
2023-04-15T22:21:46.583Z,100899.97
2023-04-15T22:24:38.807Z,100901.66
2023-04-15T22:27:03.539Z,100898.92
2023-04-15T22:29:32.313Z,100904.92
2023-04-15T22:32:00.971Z,100894.09
2023-04-15T22:34:29.751Z,100884.45
2023-04-15T22:36:57.982Z,100890.29
2023-04-15T22:39:26.247Z,100891.14
2023-04-15T22:41:54.569Z,100895.27
2023-04-15T22:44:23.006Z,100902.31
2023-04-15T22:46:52.150Z,100891.64
2023-04-15T22:49:20.740Z,100887.51
2023-04-15T22:51:49.040Z,100890.42
2023-04-15T22:54:17.485Z,100888.36
2023-04-15T22:56:45.940Z,100889.90
2023-04-15T22:59:14.600Z,100890.58
2023-04-15T23:01:43.025Z,100889.89
2023-04-15T23:04:25.327Z,100902.27
2023-04-15T23:06:56.273Z,100898.50
2023-04-15T23:09:25.322Z,100899.52
2023-04-15T23:11:54.871Z,100905.36
2023-04-15T23:14:23.354Z,100908.45
2023-04-15T23:16:52.008Z,100913.24
2023-04-15T23:19:20.562Z,100904.98
2023-04-15T23:21:49.035Z,100910.11
2023-04-15T23:24:17.425Z,100908.04
2023-04-15T23:26:46.440Z,100915.59
2023-04-15T23:29:14.817Z,100916.10
2023-04-15T23:31:43.332Z,100930.70
2023-04-15T23:34:11.714Z,100914.20
2023-04-15T23:36:40.600Z,100925.71
2023-04-15T23:39:09.228Z,100921.77
2023-04-15T23:41:37.861Z,100921.77
2023-04-15T23:44:06.463Z,100922.63
2023-04-15T23:46:35.543Z,100932.92
2023-04-15T23:49:03.968Z,100937.75
2023-04-15T23:51:33.488Z,100923.83
2023-04-15T23:54:01.910Z,100935.00
2023-04-15T23:56:30.659Z,100933.96
2023-04-15T23:58:59.104Z,100934.61
